Station KNXA2 - Kenai, AK Image indicating link to RSS feed of recent meteorological observations for station KNXA2


Conditions at KNXA2 as of
(12:34 pm AKDT)
2034 GMT on 05/28/2024:
     

Click on the graph icon in the table below to see a time series plot of the last five days of that observation.

5-day plot - Wind Direction Wind Direction (WDIR): SW ( 230 deg true )
5-day plot - Wind Speed Wind Speed (WSPD): 6 kts
5-day plot - Wind Gust Wind Gust (GST): 8 kts
5-day plot - Air Temperature Air Temperature (ATMP): 46.2 °F
5-day plot - Dew Point Dew Point (DEWP): 43.7 °F
5-day plot - Wind Chill Wind Chill (CHILL): 42.6 °F
5-day plot - Wind Speed at 10 Meters Wind Speed at 10 meters (WSPD10M): 6 kts
5-day plot - Wind Speed at 20 Meters Wind Speed at 20 meters (WSPD20M): 6 kts
5-day plot -  Wind Speed, Wind Gust and Atmospheric Pressure Combined plot of Wind Speed, Gust, and Air Pressure
Previous observations
TIME
(AKDT)
5-day plot - Wind Direction
WDIR
 
5-day plot - Wind Speed
WSPD
kts
5-day plot - Wind Gust
GST
kts
5-day plot - Wave Height
WVHT
ft
5-day plot - Dominant Wave Period
DPD
sec
5-day plot - Average Wave Period
APD
sec
5-day plot - Mean Wave Direction
MWD
 
5-day plot - Atmospheric Pressure
PRES
in
5-day plot - Pressure Tendency
PTDY
in
5-day plot - Air Temperature
ATMP
°F
5-day plot - Water Temperature
WTMP
°F
5-day plot - Dew Point
DEWP
°F
5-day plot - Salinity
SAL
psu
5-day plot - Visibility
VIS
nmi
5-day plot - Tide (above MLLW)
TIDE
ft
2024-05-28 12:25 pm SW 5 7------ 46.2- 43.5---
2024-05-28 12:14 pm SW 5 7------ 45.9- 43.5---
2024-05-28 12:04 pm SW 6 7------ 45.5- 43.2---
2024-05-28 11:54 amSSW 5 7------ 45.5- 43.3---
2024-05-28 11:44 amSSW 6 8------ 45.1- 43.0---
2024-05-28 11:35 amSSW 7 8------ 45.0- 43.0---
2024-05-28 11:24 amSSW 7 9------ 45.0- 43.0---
2024-05-28 11:14 amSSW 8 10------ 45.0- 43.2---
2024-05-28 11:04 amSSW 8 11------ 44.8- 43.0---
2024-05-28 10:54 amSSW 9 11------ 44.6- 43.0---
2024-05-28 10:44 amSSW 9 12------ 44.8- 43.2---
2024-05-28 10:34 amSSW 10 13------ 44.6- 43.0---
2024-05-28 10:24 amSSW 10 12------ 44.6- 43.0---
2024-05-28 10:14 amSSW 10 12------ 44.6- 43.0---
2024-05-28 10:04 amSSW 10 12------ 44.6- 43.0---
2024-05-28 09:54 am S 10 12------ 44.6- 43.0---
2024-05-28 09:44 am S 10 11------ 44.6- 43.0---
2024-05-28 09:34 am S 10 12------ 44.6- 43.0---
2024-05-28 09:24 am S 10 12------ 44.8- 42.8---
2024-05-28 09:14 am S 10 12------ 44.8- 42.8---
2024-05-28 09:05 am S 11 13------ 44.8- 42.8---
2024-05-28 08:54 am S 11 13------ 44.8- 43.0---
2024-05-28 08:45 am S 10 13------ 44.6- 43.0---
2024-05-28 08:35 am S 10 13------ 44.8- 43.2---
2024-05-28 08:25 am S 10 12------ 44.8- 43.2---
2024-05-28 08:15 am S 10 12------ 44.6- 43.0---
2024-05-28 08:05 am S 10 12------ 44.6- 43.0---
2024-05-28 07:54 am S 10 11------ 44.6- 43.2---
2024-05-28 07:44 am S 10 12------ 44.6- 43.0---
2024-05-28 07:34 am S 10 12------ 44.6- 43.0---
2024-05-28 07:24 am S 10 13------ 44.6- 43.0---
2024-05-28 07:14 am S 10 12------ 44.6- 43.0---
2024-05-28 07:05 am S 10 12------ 44.6- 43.0---
2024-05-28 06:54 am S 9 12------ 44.4- 43.0---
2024-05-28 06:44 amSSE 5 8------ 43.9- 42.8---
2024-05-28 06:34 amESE 4 6------ 43.3- 42.1---
2024-05-28 06:24 amESE 4 7------ 43.5- 42.3---
2024-05-28 06:14 amESE 5 7------ 43.9- 42.4---
2024-05-28 06:04 amSSE 7 9------ 44.6- 43.0---
2024-05-28 05:54 am S 9 11------ 44.8- 43.2---
2024-05-28 05:44 am S 10 13------ 44.8- 42.8---
2024-05-28 05:34 am S 11 13------ 44.8- 43.0---
2024-05-28 05:25 am S 11 14------ 45.0- 43.0---
2024-05-28 05:15 am S 11 14------ 44.8- 43.2---
2024-05-28 05:04 am S 11 14------ 45.0- 43.3---
2024-05-28 04:54 am S 12 14------ 45.0- 43.3---
2024-05-28 04:44 am S 11 13------ 45.0- 43.3---
2024-05-28 04:34 am S 12 13------ 45.0- 43.3---
2024-05-28 04:24 am S 12 14------ 45.0- 43.3---
2024-05-28 04:15 am S 12 15------ 45.1- 43.5---
2024-05-28 04:04 am S 13 16------ 45.1- 43.7---
2024-05-28 03:54 am S 13 16------ 45.1- 43.5---
2024-05-28 03:45 am S 13 16------ 45.1- 43.7---
2024-05-28 03:34 am S 13 16------ 45.1- 43.7---
2024-05-28 03:24 am S 12 16------ 45.1- 43.7---
2024-05-28 03:14 am S 11 15------ 45.3- 43.7---
2024-05-28 03:04 am S 11 15------ 45.1- 43.7---
2024-05-28 02:54 am S 11 16------ 45.3- 43.9---
2024-05-28 02:44 am S 11 15------ 45.5- 43.9---
2024-05-28 02:34 am S 13 17------ 45.5- 43.9---
2024-05-28 02:24 am S 13 17------ 45.5- 43.9---
2024-05-28 02:14 am S 13 16------ 45.5- 43.9---
2024-05-28 02:04 am S 13 17------ 45.5- 43.9---
2024-05-28 01:54 am S 14 17------ 45.5- 43.7---
2024-05-28 01:44 am S 14 17------ 45.5- 43.7---
2024-05-28 01:24 am S 13 16------ 45.5- 43.9---
2024-05-28 01:14 am S 14 17------ 45.3- 43.5---
2024-05-28 01:04 am S 14 18------ 45.3- 43.5---
2024-05-28 12:54 am S 13 16------ 45.5- 43.7---
2024-05-28 12:44 am S 14 17------ 45.5- 43.5---
2024-05-28 12:34 am S 14 17------ 45.5- 43.5---
2024-05-28 12:24 am S 13 16------ 45.7- 43.7---
2024-05-28 12:15 am S 12 16------ 45.7- 43.5---
2024-05-28 12:04 am S 12 15------ 45.9- 43.7---
2024-05-27 11:54 pm S 12 15------ 45.9- 43.7---
2024-05-27 11:44 pm S 12 15------ 45.9- 43.5---
2024-05-27 11:34 pm S 11 14------ 45.9- 43.5---
2024-05-27 11:24 pm S 11 14------ 45.9- 43.3---
2024-05-27 11:14 pm S 11 14------ 45.9- 43.3---
2024-05-27 11:04 pm S 12 16------ 45.9- 43.3---
2024-05-27 10:54 pm S 12 15------ 46.0- 43.3---
2024-05-27 10:44 pm S 12 17------ 46.0- 43.3---
2024-05-27 10:34 pm S 12 16------ 46.2- 43.5---
2024-05-27 10:24 pm S 12 14------ 46.2- 43.5---
2024-05-27 10:14 pm S 12 15------ 46.4- 43.5---
2024-05-27 10:04 pm S 13 15------ 46.4- 43.3---
2024-05-27 09:54 pm S 12 15------ 46.6- 43.5---
2024-05-27 09:44 pm S 13 17------ 46.6- 43.3---
2024-05-27 09:34 pm S 12 16------ 46.6- 43.3---
2024-05-27 09:24 pm S 12 14------ 46.4- 43.5---
2024-05-27 09:14 pm S 12 14------ 46.2- 43.5---
2024-05-27 09:04 pm S 12 14------ 46.4- 43.7---
2024-05-27 08:54 pm S 12 15------ 46.4- 43.7---
2024-05-27 08:45 pm S 13 16------ 46.6- 43.7---
2024-05-27 08:35 pm S 13 16------ 46.8- 43.5---
2024-05-27 08:25 pm S 14 17------ 46.8- 43.7---
2024-05-27 08:14 pm S 13 17------ 46.8- 43.7---
2024-05-27 08:04 pm S 13 17------ 46.8- 43.7---
2024-05-27 07:54 pm S 13 16------ 46.9- 43.9---
2024-05-27 07:44 pm S 13 15------ 47.1- 43.7---
2024-05-27 07:34 pm S 13 16------ 47.1- 43.5---
2024-05-27 07:24 pm S 13 16------ 46.9- 43.3---
2024-05-27 07:14 pm S 13 18------ 46.8- 43.3---
2024-05-27 07:04 pm S 12 14------ 46.6- 43.5---
2024-05-27 06:54 pm S 12 16------ 46.6- 43.5---
2024-05-27 06:44 pm S 12 15------ 46.4- 43.7---
2024-05-27 06:34 pm S 11 13------ 46.4- 43.7---
2024-05-27 06:24 pm S 11 13------ 46.4- 43.5---
2024-05-27 06:14 pm S 11 13------ 46.4- 43.5---
2024-05-27 06:04 pm S 11 14------ 46.4- 43.5---
2024-05-27 05:55 pm S 11 14------ 46.4- 43.5---
2024-05-27 05:44 pm S 11 14------ 46.4- 43.7---
2024-05-27 05:34 pm S 11 13------ 46.4- 43.7---
2024-05-27 05:24 pm S 10 12------ 46.6- 43.7---
2024-05-27 05:14 pm S 10 12------ 46.8- 44.1---
2024-05-27 05:04 pm S 9 11------ 47.1- 44.1---
2024-05-27 04:54 pm S 9 11------ 47.3- 44.6---
2024-05-27 04:44 pm S 10 12------ 47.3- 44.4---
2024-05-27 04:34 pm S 11 13------ 47.3- 44.6---
2024-05-27 04:24 pm S 11 13------ 47.5- 44.4---
2024-05-27 04:14 pm S 11 13------ 47.3- 44.4---
2024-05-27 03:54 pm S 12 14------ 47.3- 44.2---
2024-05-27 03:44 pm S 12 15------ 47.3- 44.2---
2024-05-27 03:34 pm S 12 15------ 47.3- 44.4---
2024-05-27 03:24 pm S 13 16------ 47.5- 44.4---
2024-05-27 03:15 pm S 12 15------ 47.5- 44.2---
2024-05-27 03:04 pm S 12 16------ 47.7- 44.6---
2024-05-27 02:54 pm S 11 15------ 47.7- 44.2---
2024-05-27 02:45 pm S 11 14------ 47.5- 44.2---
2024-05-27 02:35 pm S 12 15------ 47.3- 44.2---
2024-05-27 02:24 pm S 11 14------ 47.1- 44.2---
2024-05-27 02:14 pm S 10 13------ 47.1- 44.2---
2024-05-27 02:04 pm S 11 13------ 47.1- 44.4---
2024-05-27 01:54 pmSSW 11 13------ 46.9- 44.1---
2024-05-27 01:44 pmSSW 10 13------ 46.9- 44.2---
2024-05-27 01:35 pmSSW 10 13------ 46.9- 44.2---
2024-05-27 01:24 pmSSW 10 12------ 46.8- 44.1---
2024-05-27 01:14 pmSSW 10 13------ 46.4- 43.9---
2024-05-27 01:04 pm S 11 13------ 46.6- 43.7---
2024-05-27 12:54 pm S 10 12------ 46.6- 43.7---
2024-05-27 12:44 pm S 11 13------ 46.6- 43.5---
2024-05-27 12:34 pm S 11 14------ 46.8- 43.7---
2024-05-27 12:24 pm S 11 14------ 46.8- 43.7---
2024-05-27 12:14 pm S 12 14------ 46.6- 43.5---
2024-05-27 12:04 pm S 11 14------ 46.6- 43.5---
2024-05-27 11:55 am S 11 13------ 46.6- 43.3---